Time;durP1;ratioP1;P1;durP2;ratioP2;P2;SDS_P1;SDS_P2;PMS_P1;PMS_P2;Temp;Humidity;BMP_temperature;BMP_pressure;BME280_temperature;BME280_humidity;BME280_pressure;Samples;Min_cycle;Max_cycle;Signal;HPM_P1;HPM_P2
2022/03/23 04:39:13;;;;;;;;;;;;;;;3.24;93.22;101004.63;4958358;28;19967;-81
2022/03/23 04:41:38;;;;;;;;;;;;;;;3.25;92.64;101001.13;4966731;28;19926;-82
2022/03/23 04:44:04;;;;;;;;;;;;;;;3.11;92.20;101000.16;4965362;28;19929;-81
2022/03/23 04:46:29;;;;;;;;;;;;;;;3.14;91.98;101003.66;4967013;28;19924;-83
2022/03/23 04:48:54;;;;;;;;;;;;;;;3.08;91.71;101003.66;4967034;28;19922;-82
2022/03/23 04:51:20;;;;;;;;;;;;;;;3.04;91.50;101002.72;4965448;28;19941;-82
2022/03/23 04:53:45;;;;;;;;;;;;;;;3.05;91.27;101001.88;4966511;28;19965;-82
2022/03/23 04:56:11;;;;;;;;;;;;;;;2.99;90.94;101004.44;4949516;28;19918;-82
2022/03/23 04:58:36;;;;;;;;;;;;;;;2.99;90.62;101011.44;4966436;28;19975;-82
2022/03/23 05:01:02;;;;;;;;;;;;;;;2.95;90.53;101013.13;4965494;28;19926;-82
2022/03/23 05:03:28;;;;;;;;;;;;;;;2.89;90.22;101013.09;4981522;28;19926;-82
2022/03/23 05:05:54;;;;;;;;;;;;;;;2.91;89.93;101021.84;4963577;28;19929;-82
2022/03/23 05:08:19;;;;;;;;;;;;;;;2.94;89.65;101021.84;4963768;28;19922;-82
2022/03/23 05:10:44;;;;;;;;;;;;;;;2.88;89.22;101017.44;4966484;28;19918;-82
2022/03/23 05:13:11;;;;;;;;;;;;;;;2.94;90.04;101014.00;4966396;28;19925;-81
2022/03/23 05:15:36;;;;;;;;;;;;;;;2.90;90.14;101023.59;4964838;28;20385;-81
2022/03/23 05:18:01;;;;;;;;;;;;;;;2.93;90.44;101020.09;4981228;28;19958;-81
2022/03/23 05:20:27;;;;;;;;;;;;;;;2.88;90.38;101020.06;4963815;28;20400;-81
2022/03/23 05:22:53;;;;;;;;;;;;;;;2.81;90.22;101017.38;4964643;28;19925;-81
2022/03/23 05:25:19;;;;;;;;;;;;;;;2.87;90.07;101022.66;4951347;29;20020;-81
2022/03/23 05:27:45;;;;;;;;;;;;;;;2.80;89.72;101018.25;4955174;29;19925;-81
2022/03/23 05:30:10;;;;;;;;;;;;;;;2.76;89.54;101026.94;4956472;29;20298;-81
2022/03/23 05:32:36;;;;;;;;;;;;;;;2.79;88.93;101027.81;4955086;29;19958;-81
2022/03/23 05:35:02;;;;;;;;;;;;;;;2.70;88.80;101028.63;4956179;29;19929;-81
2022/03/23 05:37:28;;;;;;;;;;;;;;;2.69;88.51;101033.84;4966496;28;19930;-81
2022/03/23 05:39:53;;;;;;;;;;;;;;;2.73;88.19;101026.03;4980462;28;19918;-82
2022/03/23 05:42:19;;;;;;;;;;;;;;;2.70;87.76;101025.16;4964219;28;19922;-82
2022/03/23 08:45:47;;;;;;;;;;;;;;;2.13;80.10;101066.41;5179032;23;20431;-85
2022/03/23 08:48:12;;;;;;;;;;;;;;;2.11;80.00;101063.75;4993168;28;20024;-84
2022/03/23 08:50:37;;;;;;;;;;;;;;;2.10;79.77;101059.38;4994090;28;19922;-84
2022/03/23 08:53:03;;;;;;;;;;;;;;;2.12;79.93;101064.63;4993852;28;19977;-84
2022/03/23 08:55:30;;;;;;;;;;;;;;;2.13;79.81;101061.16;5014486;28;20218;-85
2022/03/23 08:57:56;;;;;;;;;;;;;;;2.17;79.91;101057.72;5035160;28;19980;-84
2022/03/23 09:00:21;;;;;;;;;;;;;;;2.13;80.05;101059.41;5033789;28;19917;-84
2022/03/23 09:02:46;;;;;;;;;;;;;;;2.15;80.42;101048.97;5034964;28;19971;-84
2022/03/23 09:05:14;;;;;;;;;;;;;;;2.15;80.71;101049.88;5034956;28;20530;-84
2022/03/23 09:07:40;;;;;;;;;;;;;;;2.23;80.87;101052.56;5034946;28;19923;-84
2022/03/23 09:10:06;;;;;;;;;;;;;;;2.18;81.02;101049.88;5034745;28;19921;-85
2022/03/23 09:12:31;;;;;;;;;;;;;;;2.24;80.96;101048.22;5035037;28;19927;-84
2022/03/23 09:14:56;;;;;;;;;;;;;;;2.24;80.56;101045.59;5033524;28;19928;-84
2022/03/23 09:17:22;;;;;;;;;;;;;;;2.22;80.77;101044.69;5034862;28;20437;-85
2022/03/23 09:19:47;;;;;;;;;;;;;;;2.22;80.94;101045.59;5016742;28;19927;-84
2022/03/23 09:22:13;;;;;;;;;;;;;;;2.22;81.26;101039.47;5034394;28;19920;-85
2022/03/23 09:24:39;;;;;;;;;;;;;;;2.25;81.77;101045.63;5034656;28;19917;-85
2022/03/23 09:27:04;;;;;;;;;;;;;;;2.27;81.92;101050.88;5034637;28;19921;-84
2022/03/23 09:29:29;;;;;;;;;;;;;;;2.28;82.02;101045.66;5033181;28;20268;-85
2022/03/23 09:31:55;;;;;;;;;;;;;;;2.26;82.20;101039.50;5016762;28;19932;-85
2022/03/23 09:34:20;;;;;;;;;;;;;;;2.32;82.47;101047.44;5016674;28;20020;-85
2022/03/23 09:39:30;;;;;;;;;;;;;;;2.32;81.73;101042.19;5034635;28;19924;-85
2022/03/23 09:41:57;;;;;;;;;;;;;;;2.31;81.37;101035.25;5034436;28;20287;-85
2022/03/23 09:44:24;;;;;;;;;;;;;;;2.32;81.01;101041.34;5033026;28;20372;-85
2022/03/23 09:46:49;;;;;;;;;;;;;;;2.35;80.53;101042.25;4999066;28;19925;-85
2022/03/23 09:49:14;;;;;;;;;;;;;;;2.36;80.52;101035.25;4996612;28;19929;-85
2022/03/23 09:51:41;;;;;;;;;;;;;;;2.32;80.52;101038.72;4996683;28;20208;-85
2022/03/23 09:54:07;;;;;;;;;;;;;;;2.40;80.44;101038.81;4996176;28;19922;-85
2022/03/23 09:56:33;;;;;;;;;;;;;;;2.32;80.37;101033.50;4996764;28;19924;-85
2022/03/23 09:58:58;;;;;;;;;;;;;;;2.35;80.59;101031.78;5012925;28;19943;-85
2022/03/23 10:01:33;;;;;;;;;;;;;;;2.40;80.62;101033.56;4996403;28;19944;-84
2022/03/23 10:04:10;;;;;;;;;;;;;;;2.39;80.68;101032.69;4995871;28;20008;-85
2022/03/23 10:06:36;;;;;;;;;;;;;;;2.43;80.71;101034.47;4995951;28;19940;-84
2022/03/23 10:09:21;;;;;;;;;;;;;;;2.42;80.58;101032.72;4996306;28;19918;-85
2022/03/23 10:12:05;;;;;;;;;;;;;;;2.48;80.61;101035.41;5013899;28;19924;-85
2022/03/23 10:14:48;;;;;;;;;;;;;;;2.45;80.23;101032.75;5012438;28;19918;-85
2022/03/23 10:17:33;;;;;;;;;;;;;;;2.45;79.84;101032.75;4995881;28;19917;-85
2022/03/23 10:19:59;;;;;;;;;;;;;;;2.46;79.55;101033.66;4996314;28;19933;-85
2022/03/23 10:22:28;;;;;;;;;;;;;;;2.50;79.54;101031.03;5009101;28;19917;-85
2022/03/23 10:24:53;;;;;;;;;;;;;;;2.45;79.62;101022.28;4996229;28;19940;-85
2022/03/23 10:27:20;;;;;;;;;;;;;;;2.54;79.87;101021.50;5013776;28;20383;-85
2022/03/23 10:29:52;;;;;;;;;;;;;;;2.53;79.90;101022.34;4994700;28;20300;-85
2022/03/23 10:32:17;;;;;;;;;;;;;;;2.57;80.13;101026.78;5011304;28;19917;-85
2022/03/23 10:34:44;;;;;;;;;;;;;;;2.56;80.16;101025.00;4995901;28;19922;-85
2022/03/23 10:37:11;;;;;;;;;;;;;;;2.55;80.07;101023.25;4995844;28;20363;-85
2022/03/23 10:39:36;;;;;;;;;;;;;;;2.57;80.08;101013.69;5013546;28;19964;-85
2022/03/23 10:42:06;;;;;;;;;;;;;;;2.59;80.28;101011.97;5013484;28;20340;-84
2022/03/23 10:44:31;;;;;;;;;;;;;;;2.60;80.18;101015.44;4994024;28;19929;-85
2022/03/23 10:46:58;;;;;;;;;;;;;;;2.58;79.94;101018.03;5031517;28;19921;-84
2022/03/23 10:49:35;;;;;;;;;;;;;;;2.61;79.46;101006.75;5015248;28;19921;-84
2022/03/23 10:52:14;;;;;;;;;;;;;;;2.60;79.47;101008.50;5015159;28;19921;-84
2022/03/23 10:54:53;;;;;;;;;;;;;;;2.66;79.40;101005.91;5031121;28;19924;-83
2022/03/23 10:57:19;;;;;;;;;;;;;;;2.65;79.35;101004.16;5015128;28;19921;-84
2022/03/23 10:59:45;;;;;;;;;;;;;;;2.66;79.10;100999.81;5031623;28;20066;-84
2022/03/23 11:02:10;;;;;;;;;;;;;;;2.69;79.20;101003.31;5032719;28;20008;-85
2022/03/23 11:04:56;;;;;;;;;;;;;;;2.69;79.14;100994.59;5032789;28;20360;-84
2022/03/23 11:07:26;;;;;;;;;;;;;;;2.71;79.13;100993.75;5014978;28;19940;-84
2022/03/23 11:18:06;;;;;;;;;;;;;;;2.79;78.76;100985.06;5032119;28;20291;-84
2022/03/23 11:20:45;;;;;;;;;;;;;;;2.80;78.53;100979.84;5014682;28;19920;-84
2022/03/23 11:23:19;;;;;;;;;;;;;;;2.78;78.36;100973.75;5014506;28;19912;-84
2022/03/23 11:25:45;;;;;;;;;;;;;;;2.79;78.09;100975.47;5032063;28;20016;-84
2022/03/23 11:28:12;;;;;;;;;;;;;;;2.83;78.11;100968.53;5032343;28;19918;-82
2022/03/23 11:30:38;;;;;;;;;;;;;;;2.78;78.05;100965.03;5031008;28;20364;-82
2022/03/23 11:33:05;;;;;;;;;;;;;;;2.83;77.89;100965.91;5032254;28;19928;-84
2022/03/23 11:35:31;;;;;;;;;;;;;;;2.84;77.56;100954.56;5031848;28;19921;-83
2022/03/23 11:37:57;;;;;;;;;;;;;;;2.86;77.30;100958.97;5014399;28;19924;-83
2022/03/23 11:40:22;;;;;;;;;;;;;;;2.85;77.18;100959.81;5013513;28;19921;-83
2022/03/23 11:42:48;;;;;;;;;;;;;;;2.85;77.30;100951.97;5010125;28;19921;-83
2022/03/23 11:45:14;;;;;;;;;;;;;;;2.88;77.12;100948.50;5030509;28;20011;-83
2022/03/23 11:47:44;;;;;;;;;;;;;;;2.95;77.29;100949.41;5014325;28;19960;-83
2022/03/23 11:50:19;;;;;;;;;;;;;;;2.90;77.26;100950.28;5031898;28;19971;-83
2022/03/23 11:52:47;;;;;;;;;;;;;;;2.91;77.13;100943.28;5027294;28;19925;-83
2022/03/23 11:58:01;;;;;;;;;;;;;;;2.98;77.35;100939.81;5031963;28;19979;-83
2022/03/23 12:00:28;;;;;;;;;;;;;;;2.95;77.24;100937.19;5030816;28;19921;-83
2022/03/23 12:02:54;;;;;;;;;;;;;;;2.98;77.13;100931.09;5031797;28;20012;-83
2022/03/23 12:05:22;;;;;;;;;;;;;;;3.02;77.01;100925.03;5031929;28;19983;-83
2022/03/23 12:07:47;;;;;;;;;;;;;;;3.03;76.99;100919.81;5032004;28;19921;-83
2022/03/23 12:10:17;;;;;;;;;;;;;;;3.05;77.18;100920.69;5013987;28;20368;-83
2022/03/23 12:12:43;;;;;;;;;;;;;;;3.02;77.10;100904.09;5030282;28;19917;-83
2022/03/23 12:15:17;;;;;;;;;;;;;;;3.03;76.89;100904.09;5012817;28;19921;-83
2022/03/23 12:17:57;;;;;;;;;;;;;;;3.04;76.73;100908.44;5013784;28;20380;-83
2022/03/23 12:20:37;;;;;;;;;;;;;;;3.09;76.70;100900.63;5013946;28;19952;-83
2022/03/23 12:23:15;;;;;;;;;;;;;;;3.07;76.51;100900.63;5031537;28;19913;-83
2022/03/23 12:25:44;;;;;;;;;;;;;;;3.11;76.56;100904.13;5031451;28;20451;-83
2022/03/23 12:28:18;;;;;;;;;;;;;;;3.11;76.51;100893.63;5031745;28;19963;-83
2022/03/23 12:30:59;;;;;;;;;;;;;;;3.13;76.62;100886.69;5033246;28;19924;-83
2022/03/23 12:33:28;;;;;;;;;;;;;;;3.16;76.67;100881.47;5034052;28;20426;-83
2022/03/23 12:36:04;;;;;;;;;;;;;;;3.16;76.59;100891.03;5034281;28;19918;-83
2022/03/23 12:38:30;;;;;;;;;;;;;;;3.19;76.63;100881.50;5034960;28;19928;-83
2022/03/23 12:41:08;;;;;;;;;;;;;;;3.19;76.54;100876.25;5017854;28;19921;-83
2022/03/23 12:43:34;;;;;;;;;;;;;;;3.22;76.35;100877.97;5035395;28;19921;-82
2022/03/23 12:45:59;;;;;;;;;;;;;;;3.23;76.18;100872.75;5016217;28;20395;-83
2022/03/23 12:59:50;;;;;;;;;;;;;;;3.65;84.29;100859.78;5033537;28;20382;-83
2022/03/23 13:02:23;;;;;;;;;;;;;;;3.63;85.60;100857.16;5035090;28;19917;-84
2022/03/23 13:04:50;;;;;;;;;;;;;;;3.57;86.81;100854.53;5034557;28;19971;-83
2022/03/23 13:07:27;;;;;;;;;;;;;;;3.44;87.96;100853.63;5034799;28;19968;-84
2022/03/23 13:09:56;;;;;;;;;;;;;;;3.35;89.70;100856.22;5034777;28;19987;-83
2022/03/23 13:12:27;;;;;;;;;;;;;;;3.29;91.06;100856.19;5034102;28;19928;-83
2022/03/23 13:14:53;;;;;;;;;;;;;;;3.32;92.88;100850.97;5033596;28;19921;-84
2022/03/23 13:17:19;;;;;;;;;;;;;;;3.52;95.45;100844.91;5034956;28;19943;-83
2022/03/23 13:19:44;;;;;;;;;;;;;;;3.84;98.71;100844.13;5017008;28;19921;-83
2022/03/23 13:22:09;;;;;;;;;;;;;;;4.05;100.00;100835.41;5033804;28;19917;-83
2022/03/23 13:24:34;;;;;;;;;;;;;;;4.18;100.00;100835.41;5034590;28;19925;-83
2022/03/23 13:27:09;;;;;;;;;;;;;;;4.32;100.00;100830.16;5027926;28;19964;-83
2022/03/23 13:29:35;;;;;;;;;;;;;;;4.41;100.00;100826.66;5032933;28;19921;-83
2022/03/23 13:32:03;;;;;;;;;;;;;;;4.47;100.00;100825.78;5029862;28;20269;-83
2022/03/23 13:34:28;;;;;;;;;;;;;;;4.51;100.00;100817.00;5033033;28;19923;-83
2022/03/23 13:36:53;;;;;;;;;;;;;;;4.57;100.00;100819.63;5016674;28;19921;-83
2022/03/23 13:39:19;;;;;;;;;;;;;;;4.63;100.00;100824.00;5012179;28;19924;-83
2022/03/23 13:47:15;;;;;;;;;;;;;;;4.76;100.00;100812.59;5034500;28;19939;-83
2022/03/23 13:49:42;;;;;;;;;;;;;;;4.80;100.00;100814.31;5034223;28;19921;-83
2022/03/23 13:52:07;;;;;;;;;;;;;;;4.86;100.00;100814.28;5034263;28;20268;-83
2022/03/23 13:54:32;;;;;;;;;;;;;;;4.89;100.00;100813.41;5016340;28;19972;-83
2022/03/23 13:56:57;;;;;;;;;;;;;;;4.88;100.00;100809.94;5034125;28;19921;-83
2022/03/23 13:59:23;;;;;;;;;;;;;;;4.90;100.00;100805.53;5031984;28;19960;-83
2022/03/23 14:01:49;;;;;;;;;;;;;;;4.94;100.00;100797.66;5033986;28;20320;-82
2022/03/23 14:04:15;;;;;;;;;;;;;;;4.94;100.00;100795.88;5016238;28;19921;-83
2022/03/23 14:06:55;;;;;;;;;;;;;;;5.02;100.00;100795.88;5032548;28;19929;-82
2022/03/23 14:09:22;;;;;;;;;;;;;;;5.02;100.00;100788.84;5033815;28;19986;-82
2022/03/23 14:11:47;;;;;;;;;;;;;;;5.04;100.00;100794.09;5033537;28;19975;-83
2022/03/23 14:14:14;;;;;;;;;;;;;;;5.05;100.00;100793.22;5032435;28;19924;-82
2022/03/23 14:16:40;;;;;;;;;;;;;;;5.12;100.00;100780.94;5015873;28;19917;-82
2022/03/23 14:19:06;;;;;;;;;;;;;;;5.14;100.00;100787.94;5015849;28;19928;-82
2022/03/23 14:21:32;;;;;;;;;;;;;;;5.17;100.00;100785.31;5033563;28;19917;-82
2022/03/23 14:23:58;;;;;;;;;;;;;;;5.20;100.00;100779.13;5015842;28;20381;-83
2022/03/23 14:26:32;;;;;;;;;;;;;;;5.20;100.00;100772.16;5015746;28;19917;-83
2022/03/23 14:28:58;;;;;;;;;;;;;;;4.70;100.00;100773.22;5013740;28;19917;-83
2022/03/23 14:31:23;;;;;;;;;;;;;;;3.91;100.00;100772.44;5031901;28;19917;-83
2022/03/23 14:33:54;;;;;;;;;;;;;;;3.73;100.00;100768.06;5015499;28;20356;-83
2022/03/23 14:36:26;;;;;;;;;;;;;;;3.60;100.00;100764.56;5032812;28;19924;-83
2022/03/23 14:38:51;;;;;;;;;;;;;;;3.50;100.00;100765.44;5033013;28;19927;-83
2022/03/23 14:41:20;;;;;;;;;;;;;;;3.47;100.00;100766.28;5015453;28;19917;-83
2022/03/23 14:43:48;;;;;;;;;;;;;;;3.45;100.00;100762.81;5031963;28;19991;-83
2022/03/23 14:46:23;;;;;;;;;;;;;;;3.28;100.00;100763.63;5031605;28;19925;-83
2022/03/23 14:49:01;;;;;;;;;;;;;;;3.28;100.00;100758.38;5014711;28;20024;-82
2022/03/23 14:51:26;;;;;;;;;;;;;;;3.24;99.76;100755.78;5013458;28;20059;-83
2022/03/23 14:53:52;;;;;;;;;;;;;;;3.22;99.04;100760.13;5013775;28;20004;-83
2022/03/23 14:56:18;;;;;;;;;;;;;;;3.15;98.18;100755.75;5015268;28;19924;-83
2022/03/23 14:58:44;;;;;;;;;;;;;;;3.15;98.02;100750.50;5030572;28;19917;-83
2022/03/23 15:01:09;;;;;;;;;;;;;;;3.16;97.20;100749.63;5014817;28;20468;-83
2022/03/23 15:03:35;;;;;;;;;;;;;;;3.11;96.64;100735.63;5014937;28;19928;-83
2022/03/23 15:14:13;;;;;;;;;;;;;;;2.99;95.78;100731.25;5031361;28;19974;-83
2022/03/23 15:16:38;;;;;;;;;;;;;;;2.96;95.49;100732.09;5032624;28;20023;-83
2022/03/23 15:19:04;;;;;;;;;;;;;;;2.92;95.19;100735.59;5014663;28;20327;-83
2022/03/23 15:21:29;;;;;;;;;;;;;;;2.87;94.95;100721.59;5032521;28;19917;-83
2022/03/23 15:23:55;;;;;;;;;;;;;;;2.92;94.59;100725.13;5032333;28;20055;-83
2022/03/23 15:26:23;;;;;;;;;;;;;;;2.86;94.05;100720.72;5027888;28;19921;-82
2022/03/23 15:28:49;;;;;;;;;;;;;;;2.91;93.44;100720.75;5031031;28;19921;-82
2022/03/23 15:31:14;;;;;;;;;;;;;;;2.85;92.67;100718.09;5014526;28;19921;-82
2022/03/23 15:33:39;;;;;;;;;;;;;;;2.81;92.26;100721.56;5014306;28;19932;-82
2022/03/23 15:36:05;;;;;;;;;;;;;;;2.81;91.52;100718.94;5014476;28;20292;-82
2022/03/23 15:38:31;;;;;;;;;;;;;;;2.84;90.97;100721.59;5010235;28;19917;-83
2022/03/23 15:40:57;;;;;;;;;;;;;;;2.75;90.51;100713.72;5032129;28;19928;-82
2022/03/23 15:43:22;;;;;;;;;;;;;;;2.76;90.43;100716.34;5032200;28;19927;-82
2022/03/23 15:45:48;;;;;;;;;;;;;;;2.76;90.00;100710.22;5030664;28;19921;-82
2022/03/23 15:48:13;;;;;;;;;;;;;;;2.70;89.93;100714.56;5009922;28;19921;-82
2022/03/23 15:50:39;;;;;;;;;;;;;;;2.75;89.53;100721.56;5014232;28;19918;-82
2022/03/23 15:53:04;;;;;;;;;;;;;;;2.73;89.24;100716.31;5032070;28;19925;-82
2022/03/23 15:55:30;;;;;;;;;;;;;;;2.72;88.80;100718.06;5014212;28;20004;-82
2022/03/23 15:57:56;;;;;;;;;;;;;;;2.78;88.75;100717.22;5014090;28;19967;-83
2022/03/23 16:00:22;;;;;;;;;;;;;;;2.67;88.51;100711.06;5028465;28;19921;-82
2022/03/23 16:02:47;;;;;;;;;;;;;;;2.67;88.23;100714.53;5013835;28;20327;-82
2022/03/23 16:05:13;;;;;;;;;;;;;;;2.65;88.42;100711.06;5013723;28;19921;-82
2022/03/23 16:07:38;;;;;;;;;;;;;;;2.59;88.26;100713.66;5031711;28;19917;-83
2022/03/23 16:10:04;;;;;;;;;;;;;;;2.61;88.07;100711.91;5014057;28;20377;-82
2022/03/23 16:12:30;;;;;;;;;;;;;;;2.61;88.14;100719.75;5030309;28;19964;-82
2022/03/23 16:14:55;;;;;;;;;;;;;;;2.57;87.95;100701.41;5030712;28;19973;-83
2022/03/23 16:17:20;;;;;;;;;;;;;;;2.56;87.78;100705.78;5031723;28;19918;-83
2022/03/23 16:19:46;;;;;;;;;;;;;;;2.57;87.62;100710.16;5014070;28;19921;-82
2022/03/23 16:22:11;;;;;;;;;;;;;;;2.54;87.47;100705.75;5031968;28;19917;-82
2022/03/23 16:24:36;;;;;;;;;;;;;;;2.56;87.33;100708.41;5013868;28;19921;-82
2022/03/23 16:27:03;;;;;;;;;;;;;;;2.57;87.00;100709.25;5014000;28;20430;-82
2022/03/23 16:29:28;;;;;;;;;;;;;;;2.48;86.94;100713.59;5012630;28;20391;-82
2022/03/23 16:31:54;;;;;;;;;;;;;;;2.48;86.84;100721.44;5013702;28;19921;-82
2022/03/23 16:34:21;;;;;;;;;;;;;;;2.45;86.65;100716.19;5031596;28;20028;-83
2022/03/23 16:36:50;;;;;;;;;;;;;;;2.47;86.70;100717.09;5013764;28;20379;-82
2022/03/23 16:39:16;;;;;;;;;;;;;;;2.50;86.33;100718.81;5013953;28;19930;-82
2022/03/23 16:41:41;;;;;;;;;;;;;;;2.51;86.14;100721.44;5031436;28;20284;-82
2022/03/23 16:44:09;;;;;;;;;;;;;;;2.47;86.16;100721.41;5030339;28;19925;-82
2022/03/23 16:46:35;;;;;;;;;;;;;;;2.51;86.17;100718.84;5030428;28;19925;-82
2022/03/23 16:49:01;;;;;;;;;;;;;;;2.43;86.08;100719.69;5031410;28;20184;-82
2022/03/23 16:51:27;;;;;;;;;;;;;;;2.45;85.86;100723.16;5031457;28;19980;-82
2022/03/23 16:53:52;;;;;;;;;;;;;;;2.44;85.81;100721.41;5030596;28;19921;-82
2022/03/23 16:56:19;;;;;;;;;;;;;;;2.45;85.60;100723.16;5031735;28;19961;-82
2022/03/23 16:58:44;;;;;;;;;;;;;;;2.44;85.64;100721.41;5012711;28;20374;-82
2022/03/23 17:01:10;;;;;;;;;;;;;;;2.47;85.40;100717.09;5030652;28;19921;-82
2022/03/23 17:14:31;;;;;;;;;;;;;;;2.38;84.71;100727.50;5030365;28;19924;-82
2022/03/23 17:16:57;;;;;;;;;;;;;;;2.36;84.56;100732.72;5032323;28;19921;-82
2022/03/23 17:19:23;;;;;;;;;;;;;;;2.36;84.59;100723.97;5016934;28;19920;-82
2022/03/23 17:21:49;;;;;;;;;;;;;;;2.32;84.65;100732.69;5016583;28;20368;-82
2022/03/23 17:24:15;;;;;;;;;;;;;;;2.38;84.45;100730.13;5033910;28;19964;-81
2022/03/23 17:26:40;;;;;;;;;;;;;;;2.35;84.51;100732.72;5016493;28;19960;-82
2022/03/23 17:29:07;;;;;;;;;;;;;;;2.38;84.61;100726.59;5014557;28;20303;-82
2022/03/23 17:31:34;;;;;;;;;;;;;;;2.36;84.48;100724.88;5031585;28;19928;-82
2022/03/23 17:33:59;;;;;;;;;;;;;;;2.35;84.54;100733.56;5033611;28;19928;-81
2022/03/23 17:36:24;;;;;;;;;;;;;;;2.38;84.26;100737.06;5016451;28;20291;-82
2022/03/23 17:38:50;;;;;;;;;;;;;;;2.31;84.20;100738.78;5034177;28;19921;-82
2022/03/23 17:41:16;;;;;;;;;;;;;;;2.29;84.28;100733.53;5016611;28;19917;-82
2022/03/23 17:43:41;;;;;;;;;;;;;;;2.32;84.19;100735.31;5033480;28;20372;-82
2022/03/23 17:46:07;;;;;;;;;;;;;;;2.32;84.23;100735.31;5029515;28;19928;-81
2022/03/23 17:48:32;;;;;;;;;;;;;;;2.33;84.23;100739.66;5033622;28;19957;-81
2022/03/23 17:50:57;;;;;;;;;;;;;;;2.31;84.13;100736.16;5033355;28;19921;-82
2022/03/23 17:53:22;;;;;;;;;;;;;;;2.30;84.09;100737.91;5016059;28;19921;-82
2022/03/23 17:55:48;;;;;;;;;;;;;;;2.33;84.09;100731.81;5033919;28;19956;-82
2022/03/23 17:58:14;;;;;;;;;;;;;;;2.31;84.01;100739.66;5034131;28;20011;-82
2022/03/23 18:00:40;;;;;;;;;;;;;;;2.32;83.94;100744.00;5031920;28;20071;-82
2022/03/23 18:03:05;;;;;;;;;;;;;;;2.34;83.84;100741.41;5016190;28;20019;-82
2022/03/23 18:05:31;;;;;;;;;;;;;;;2.38;83.94;100744.91;5034129;28;20427;-82
2022/03/23 18:07:56;;;;;;;;;;;;;;;2.34;84.28;100747.50;5033217;28;20273;-82
2022/03/23 18:10:22;;;;;;;;;;;;;;;2.35;84.16;100744.03;5033970;28;20006;-81
2022/03/23 18:12:47;;;;;;;;;;;;;;;2.34;84.28;100741.41;5033637;28;19917;-82
2022/03/23 18:15:15;;;;;;;;;;;;;;;2.33;84.27;100740.53;5032334;28;19932;-82
2022/03/23 18:17:40;;;;;;;;;;;;;;;2.38;84.03;100748.41;5033908;28;19917;-82
2022/03/23 18:20:06;;;;;;;;;;;;;;;2.31;83.94;100737.06;5015727;28;20292;-82
2022/03/23 18:22:32;;;;;;;;;;;;;;;2.37;83.90;100746.66;5014822;28;19924;-82
2022/03/23 18:24:57;;;;;;;;;;;;;;;2.35;83.94;100744.03;5033489;28;19924;-82
2022/03/23 18:27:22;;;;;;;;;;;;;;;2.36;83.84;100755.34;5015428;28;20022;-82
2022/03/23 18:29:48;;;;;;;;;;;;;;;2.38;83.62;100750.13;5014223;28;19917;-82
2022/03/23 18:32:13;;;;;;;;;;;;;;;2.37;83.60;100746.66;5015528;28;19921;-82
2022/03/23 18:34:38;;;;;;;;;;;;;;;2.37;83.40;100751.88;5015573;28;20027;-82
2022/03/23 18:37:04;;;;;;;;;;;;;;;2.39;83.40;100757.13;5015466;28;20280;-82
2022/03/23 18:39:29;;;;;;;;;;;;;;;2.39;83.22;100759.75;5033185;28;19949;-82
2022/03/23 18:41:54;;;;;;;;;;;;;;;2.36;83.15;100758.88;5033244;28;19925;-81
2022/03/23 18:44:20;;;;;;;;;;;;;;;2.39;82.98;100759.75;5014202;28;19917;-82
2022/03/23 18:46:46;;;;;;;;;;;;;;;2.36;83.21;100771.94;5032997;28;20288;-82
2022/03/23 18:49:12;;;;;;;;;;;;;;;2.41;82.97;100763.25;5033017;28;19924;-82
2022/03/23 18:51:37;;;;;;;;;;;;;;;2.40;82.75;100769.34;5032942;28;20007;-82
2022/03/23 18:54:02;;;;;;;;;;;;;;;2.43;82.60;100769.38;5014720;28;19925;-82
2022/03/23 18:56:28;;;;;;;;;;;;;;;2.43;82.45;100767.63;5015108;28;19917;-82
2022/03/23 18:58:53;;;;;;;;;;;;;;;2.45;82.30;100770.25;5013732;28;19921;-82
2022/03/23 19:01:18;;;;;;;;;;;;;;;2.44;82.18;100768.50;5032796;28;19917;-82
2022/03/23 19:03:45;;;;;;;;;;;;;;;2.43;82.15;100772.88;5015110;28;19918;-82
2022/03/23 19:06:11;;;;;;;;;;;;;;;2.43;81.92;100777.22;5014773;28;19994;-82
2022/03/23 19:08:37;;;;;;;;;;;;;;;2.44;81.86;100771.09;5032620;28;19944;-82
2022/03/23 19:11:07;;;;;;;;;;;;;;;2.45;81.82;100773.75;5032633;28;20294;-82
2022/03/23 19:13:32;;;;;;;;;;;;;;;2.47;81.64;100771.13;5032566;28;19963;-82
2022/03/23 19:15:58;;;;;;;;;;;;;;;2.44;81.75;100777.25;5027175;28;20023;-82
2022/03/23 19:18:23;;;;;;;;;;;;;;;2.49;81.84;100775.53;5032044;28;20364;-82
2022/03/23 19:20:49;;;;;;;;;;;;;;;2.49;81.88;100782.47;5030985;28;19925;-82
2022/03/23 19:23:14;;;;;;;;;;;;;;;2.69;81.70;100782.59;5031632;28;19936;-82
2022/03/23 19:25:39;;;;;;;;;;;;;;;2.56;81.89;100779.03;5032316;28;20004;-82
2022/03/23 19:28:04;;;;;;;;;;;;;;;2.57;81.95;100791.28;5032359;28;19931;-82
2022/03/23 19:30:31;;;;;;;;;;;;;;;2.55;81.83;100785.13;5012856;28;19924;-82
2022/03/23 19:32:56;;;;;;;;;;;;;;;2.53;81.77;100782.50;5031235;28;20361;-82
2022/03/23 19:35:22;;;;;;;;;;;;;;;3.61;82.22;100780.28;5031564;28;19925;-82
2022/03/23 19:37:47;;;;;;;;;;;;;;;3.05;82.69;100781.03;5030354;28;19928;-81
2022/03/23 19:40:13;;;;;;;;;;;;;;;2.90;82.93;100789.66;5011622;28;19925;-81
2022/03/23 19:42:39;;;;;;;;;;;;;;;2.79;82.73;100794.00;5028490;28;19967;-81
2022/03/23 19:45:06;;;;;;;;;;;;;;;2.78;82.52;100792.25;5027804;28;20361;-81
2022/03/23 19:47:32;;;;;;;;;;;;;;;2.75;82.06;100806.19;5032055;28;19983;-82
2022/03/23 19:49:58;;;;;;;;;;;;;;;2.77;81.72;100800.97;5032030;28;19917;-82
2022/03/23 19:52:23;;;;;;;;;;;;;;;2.71;81.37;100802.69;5013013;28;19921;-82
2022/03/23 19:54:48;;;;;;;;;;;;;;;2.68;81.13;100799.16;5030106;28;19921;-82
2022/03/23 19:57:14;;;;;;;;;;;;;;;2.71;80.86;100800.06;5031133;28;19947;-81
2022/03/23 19:59:39;;;;;;;;;;;;;;;2.72;80.75;100804.41;5029123;28;19921;-81
2022/03/23 20:02:05;;;;;;;;;;;;;;;2.71;80.74;100805.31;5030916;28;19929;-81
2022/03/23 20:04:30;;;;;;;;;;;;;;;2.71;80.63;100802.69;5031066;28;20004;-82
2022/03/23 20:06:55;;;;;;;;;;;;;;;2.72;80.50;100796.56;5013841;28;20446;-82
2022/03/23 20:09:21;;;;;;;;;;;;;;;2.72;80.53;100800.94;5014056;28;19923;-82
2022/03/23 20:11:47;;;;;;;;;;;;;;;2.70;80.45;100800.94;5013845;28;20360;-82
2022/03/23 20:14:13;;;;;;;;;;;;;;;2.70;80.36;100803.53;5030388;28;19925;-82
2022/03/23 20:16:39;;;;;;;;;;;;;;;2.72;79.92;100811.41;5014064;28;19924;-82
2022/03/23 20:19:05;;;;;;;;;;;;;;;2.70;79.71;100808.78;5031531;28;19944;-81
2022/03/23 20:21:33;;;;;;;;;;;;;;;2.73;79.34;100803.56;5013865;28;19956;-82
2022/03/23 20:23:58;;;;;;;;;;;;;;;2.73;79.02;100814.03;5031589;28;20446;-82
2022/03/23 20:26:23;;;;;;;;;;;;;;;2.71;78.87;100807.94;5031600;28;20064;-82
2022/03/23 20:28:49;;;;;;;;;;;;;;;2.72;78.85;100807.03;5030984;28;19925;-82
2022/03/23 20:31:16;;;;;;;;;;;;;;;2.76;78.73;100812.28;5030920;28;19933;-82
2022/03/23 20:33:41;;;;;;;;;;;;;;;2.73;78.46;100803.56;5030713;28;19971;-81
2022/03/23 20:36:07;;;;;;;;;;;;;;;2.76;78.39;100804.44;5030300;28;20280;-82
2022/03/23 20:38:32;;;;;;;;;;;;;;;2.75;78.33;100807.94;5031489;28;19928;-82
2022/03/23 20:40:59;;;;;;;;;;;;;;;2.79;78.54;100812.31;5011691;28;19917;-82
2022/03/23 20:43:25;;;;;;;;;;;;;;;2.79;78.56;100817.53;5023254;28;20067;-82
2022/03/23 20:45:55;;;;;;;;;;;;;;;2.81;78.50;100813.19;5028413;28;19929;-82
2022/03/23 20:48:21;;;;;;;;;;;;;;;2.82;78.69;100812.31;5012597;28;19921;-82
2022/03/23 20:50:48;;;;;;;;;;;;;;;2.82;78.65;100810.56;5027581;28;20292;-82
2022/03/23 20:53:15;;;;;;;;;;;;;;;2.84;78.74;100816.72;5033695;28;19928;-82
2022/03/23 20:55:41;;;;;;;;;;;;;;;2.87;78.52;100826.31;5034947;28;19965;-82
2022/03/23 20:58:06;;;;;;;;;;;;;;;2.90;78.65;100823.72;5017254;28;19930;-81
2022/03/23 21:00:32;;;;;;;;;;;;;;;2.87;78.46;100828.94;5033778;28;20376;-82
2022/03/23 21:02:58;;;;;;;;;;;;;;;2.88;78.28;100825.44;5017277;28;19917;-82
2022/03/23 21:05:23;;;;;;;;;;;;;;;2.91;78.09;100818.47;5034910;28;20617;-82
2022/03/23 21:07:53;;;;;;;;;;;;;;;2.91;77.82;100822.84;5035038;28;19928;-82
2022/03/23 21:10:19;;;;;;;;;;;;;;;2.94;77.58;100827.25;5034670;28;19917;-82
2022/03/23 21:12:45;;;;;;;;;;;;;;;2.93;77.51;100823.72;5034131;28;19921;-82